Time;durP1;ratioP1;P1;durP2;ratioP2;P2;SDS_P1;SDS_P2;PMS_P1;PMS_P2;Temp;Humidity;BMP_temperature;BMP_pressure;BME280_temperature;BME280_humidity;BME280_pressure;Samples;Min_cycle;Max_cycle;Signal;HPM_P1;HPM_P2
2022/09/07 00:01:04;;;;;;;7.60;4.40;;;;;;;19.36;77.39;101066.97;3591071;39;20059;-65
2022/09/07 00:03:30;;;;;;;5.57;3.92;;;;;;;19.22;77.72;101066.44;3589483;39;20052;-65
2022/09/07 00:05:57;;;;;;;8.05;4.50;;;;;;;19.16;77.38;101066.16;3592508;39;20059;-65
2022/09/07 00:08:26;;;;;;;5.55;4.00;;;;;;;19.10;77.73;101055.84;3587111;39;20395;-64
2022/09/07 00:11:02;;;;;;;6.43;3.60;;;;;;;18.95;77.39;101036.31;3590601;39;20067;-64
2022/09/07 00:13:32;;;;;;;5.88;4.28;;;;;;;18.94;78.14;101034.63;3588281;39;20060;-65
2022/09/07 00:16:03;;;;;;;4.80;3.70;;;;;;;18.89;78.28;101024.13;3591625;39;20145;-65
2022/09/07 00:18:29;;;;;;;5.22;3.80;;;;;;;18.79;79.12;101026.84;3587329;39;20060;-65
2022/09/07 00:21:07;;;;;;;5.32;3.78;;;;;;;18.71;78.69;101023.09;3588469;39;20064;-64
2022/09/07 00:23:35;;;;;;;4.35;3.72;;;;;;;18.72;80.01;101033.00;3590292;39;20614;-65
2022/09/07 00:26:11;;;;;;;4.22;3.40;;;;;;;18.35;79.40;100981.94;3591391;39;20055;-65
2022/09/07 00:28:38;;;;;;;3.35;3.05;;;;;;;18.61;79.54;101024.97;3590258;39;20060;-64
2022/09/07 00:31:11;;;;;;;3.70;3.40;;;;;;;18.57;78.87;101029.81;3588805;39;20050;-65
2022/09/07 00:33:36;;;;;;;3.67;3.35;;;;;;;18.52;79.53;101021.22;3591152;39;20064;-65
2022/09/07 00:36:02;;;;;;;7.90;4.32;;;;;;;18.55;79.91;101031.81;3591116;39;20436;-65
2022/09/07 00:38:28;;;;;;;6.22;4.55;;;;;;;18.51;79.62;101031.25;3591252;39;20047;-65
2022/09/07 00:40:55;;;;;;;6.03;4.18;;;;;;;18.43;79.76;101022.09;3590168;39;20057;-65
2022/09/07 00:43:42;;;;;;;4.97;4.47;;;;;;;18.27;80.23;101001.72;3593518;39;20044;-65
2022/09/07 00:46:19;;;;;;;5.00;4.50;;;;;;;18.28;79.82;101003.44;3591320;39;20081;-65
2022/09/07 00:49:01;;;;;;;7.95;4.40;;;;;;;18.23;80.06;100988.50;3592435;39;20120;-64
2022/09/07 00:51:52;;;;;;;6.82;4.82;;;;;;;18.16;81.19;100980.06;3588886;39;20087;-65
2022/09/07 00:54:27;;;;;;;5.80;4.65;;;;;;;18.17;81.11;100972.75;3589352;39;20052;-65
2022/09/07 00:56:53;;;;;;;6.63;4.55;;;;;;;18.15;81.10;100975.63;3592217;39;20059;-64
2022/09/07 00:59:27;;;;;;;5.70;4.50;;;;;;;18.10;81.11;100977.91;3589862;39;20063;-64
2022/09/07 01:01:53;;;;;;;7.65;4.60;;;;;;;18.10;81.00;100967.00;3590801;39;20064;-65
2022/09/07 01:04:22;;;;;;;5.38;4.18;;;;;;;17.99;81.71;100965.28;3591853;39;20063;-64
2022/09/07 01:06:48;;;;;;;8.40;4.65;;;;;;;18.10;82.05;100989.63;3589823;39;20060;-64
2022/09/07 01:09:21;;;;;;;5.60;4.28;;;;;;;18.15;81.68;100986.50;3589615;39;20048;-64
2022/09/07 01:11:50;;;;;;;5.07;4.45;;;;;;;18.13;81.41;100983.06;3587479;39;20345;-64
2022/09/07 01:14:23;;;;;;;6.90;4.50;;;;;;;18.06;81.21;100965.59;3589309;39;20565;-64
2022/09/07 01:17:17;;;;;;;5.07;4.47;;;;;;;18.13;80.44;100988.50;3589792;39;21387;-64
2022/09/07 01:20:11;;;;;;;;;;;;;;;18.06;81.43;100990.91;3589079;39;20060;-65
2022/09/07 01:22:58;;;;;;;6.55;4.30;;;;;;;18.13;82.30;100996.66;3588904;39;19991;-64
2022/09/07 01:26:06;;;;;;;5.75;4.00;;;;;;;18.16;80.92;100990.09;3588924;39;20615;-64
2022/09/07 01:28:34;;;;;;;5.18;4.60;;;;;;;18.19;80.62;100987.09;3588971;39;20405;-64
2022/09/07 01:31:13;;;;;;;5.10;4.40;;;;;;;18.19;80.47;100982.50;3590357;39;20056;-64
2022/09/07 01:33:58;;;;;;;5.30;4.43;;;;;;;18.20;81.99;100994.25;3590496;39;20405;-64
2022/09/07 01:36:46;;;;;;;9.55;4.88;;;;;;;18.14;81.00;100990.25;3588464;39;20062;-64
2022/09/07 01:39:12;;;;;;;6.43;4.57;;;;;;;18.16;81.36;100988.22;3591030;39;20052;-64
2022/09/07 01:41:57;;;;;;;4.93;4.13;;;;;;;18.13;82.02;100996.66;3590307;39;20055;-63
2022/09/07 01:44:48;;;;;;;4.55;4.15;;;;;;;18.11;81.08;100990.53;3591356;39;20064;-64
2022/09/07 01:47:31;;;;;;;5.03;4.30;;;;;;;18.12;80.96;100989.50;3590470;39;20103;-65
2022/09/07 01:50:15;;;;;;;8.35;4.72;;;;;;;18.12;81.41;100991.38;3593002;39;20104;-65
2022/09/07 01:52:51;;;;;;;5.35;4.05;;;;;;;18.13;82.31;100988.50;3591785;39;20125;-65
2022/09/07 01:56:02;;;;;;;5.75;4.35;;;;;;;18.06;81.78;100982.75;3589198;39;20056;-64
2022/09/07 01:58:41;;;;;;;5.72;4.20;;;;;;;17.73;81.65;100940.41;3588450;39;20079;-64
2022/09/07 02:01:28;;;;;;;5.43;4.45;;;;;;;17.87;81.77;100958.22;3588409;39;20052;-64
2022/09/07 02:04:30;;;;;;;5.15;4.65;;;;;;;18.04;82.03;100983.88;3590091;39;20071;-64
2022/09/07 02:07:14;;;;;;;5.97;4.60;;;;;;;18.01;82.39;100995.03;3588048;39;20055;-64
2022/09/07 02:09:59;;;;;;;5.18;4.68;;;;;;;17.97;82.57;100988.16;3588667;39;20052;-64
2022/09/07 02:12:53;;;;;;;4.68;4.22;;;;;;;17.95;82.77;100982.00;3587297;39;20063;-64
2022/09/07 02:15:41;;;;;;;5.43;4.65;;;;;;;17.86;82.87;100987.28;3588219;39;20063;-64
2022/09/07 02:18:12;;;;;;;5.95;4.53;;;;;;;17.76;82.82;100980.94;3588608;39;20078;-65
2022/09/07 02:20:47;;;;;;;6.00;4.85;;;;;;;17.81;82.53;100989.56;3589597;39;20095;-64
2022/09/07 02:23:24;;;;;;;5.60;4.85;;;;;;;17.79;82.46;100986.13;3587531;39;20132;-64
2022/09/07 02:25:59;;;;;;;6.00;4.60;;;;;;;17.81;83.55;100986.84;3589617;39;20346;-64
2022/09/07 02:28:38;;;;;;;5.05;4.55;;;;;;;17.81;82.86;100992.28;3588128;39;20060;-65
2022/09/07 02:31:05;;;;;;;5.15;4.50;;;;;;;17.75;82.75;100984.63;3586461;39;20108;-65
2022/09/07 02:33:31;;;;;;;6.60;4.50;;;;;;;17.77;83.45;100987.25;3588392;39;20056;-64
2022/09/07 02:35:59;;;;;;;6.32;4.97;;;;;;;17.75;83.07;100990.06;3589014;39;20093;-64
2022/09/07 02:38:24;;;;;;;5.93;5.03;;;;;;;17.74;83.31;100988.34;3587966;39;20056;-64
2022/09/07 02:40:54;;;;;;;6.43;5.35;;;;;;;17.71;83.54;100982.34;3588437;39;20062;-65
2022/09/07 02:43:23;;;;;;;6.38;4.90;;;;;;;17.55;83.58;100959.22;3587077;39;20044;-64
2022/09/07 02:46:06;;;;;;;6.28;5.18;;;;;;;17.70;83.06;100992.34;3588087;39;20077;-64
2022/09/07 02:48:47;;;;;;;6.13;5.53;;;;;;;17.70;83.69;100986.91;3587813;39;20056;-64
2022/09/07 02:51:37;;;;;;;7.05;5.35;;;;;;;17.69;83.57;100987.03;3588135;39;20136;-63
2022/09/07 02:54:37;;;;;;;6.82;5.38;;;;;;;17.69;83.77;100987.91;3588464;39;20055;-64
2022/09/07 02:57:46;;;;;;;6.82;5.53;;;;;;;17.64;83.84;100992.91;3589683;39;20078;-65
2022/09/07 03:00:24;;;;;;;7.78;5.68;;;;;;;17.61;83.82;100998.59;3589560;39;20070;-65
2022/09/07 03:03:18;;;;;;;8.18;5.20;;;;;;;17.57;84.70;100991.69;3591321;39;20048;-64
2022/09/07 03:06:00;;;;;;;5.75;5.15;;;;;;;17.60;84.01;100996.88;3589715;39;20381;-64
2022/09/07 03:08:37;;;;;;;6.95;5.90;;;;;;;17.64;83.91;100995.63;3593022;39;20066;-64
2022/09/07 03:11:07;;;;;;;8.80;5.80;;;;;;;17.68;84.09;100985.31;3591292;39;20052;-65
2022/09/07 03:13:33;;;;;;;6.65;5.95;;;;;;;17.74;84.36;100985.63;3592547;39;20073;-64
2022/09/07 03:15:59;;;;;;;6.03;5.43;;;;;;;17.81;84.13;100988.69;3590573;39;20489;-64
2022/09/07 03:18:26;;;;;;;6.78;5.97;;;;;;;17.84;84.44;100978.41;3591414;39;20347;-64
2022/09/07 03:20:54;;;;;;;9.13;6.05;;;;;;;17.92;84.11;100974.13;3587508;39;20054;-64
2022/09/07 03:23:20;;;;;;;6.72;5.68;;;;;;;17.95;83.23;100973.84;3590217;39;20095;-64
2022/09/07 03:25:47;;;;;;;6.40;5.80;;;;;;;17.96;82.96;100970.16;3589698;39;20407;-65
2022/09/07 03:28:14;;;;;;;10.38;6.95;;;;;;;17.97;83.29;100974.56;3589245;39;20051;-64
2022/09/07 03:30:42;;;;;;;7.45;6.75;;;;;;;17.98;83.69;100973.56;3590071;39;20386;-65
2022/09/07 03:33:09;;;;;;;8.63;7.82;;;;;;;18.05;83.69;100986.50;3590389;39;20072;-64
2022/09/07 03:35:34;;;;;;;11.10;8.27;;;;;;;18.10;83.09;100978.75;3589869;39;20044;-63
2022/09/07 03:38:00;;;;;;;8.93;7.70;;;;;;;18.15;82.67;100981.06;3589840;39;20071;-64
2022/09/07 03:40:26;;;;;;;6.97;6.28;;;;;;;18.14;82.07;100979.34;3591654;39;20129;-64
2022/09/07 03:42:52;;;;;;;7.95;5.88;;;;;;;17.94;82.32;100944.94;3589436;39;20359;-64
2022/09/07 03:45:18;;;;;;;6.68;6.03;;;;;;;18.18;82.53;100986.22;3586087;39;20044;-64
2022/09/07 03:47:44;;;;;;;6.97;5.90;;;;;;;18.20;81.86;100986.94;3590929;39;20048;-65
2022/09/07 03:50:10;;;;;;;7.25;6.00;;;;;;;18.23;82.66;100997.53;3590851;39;20093;-64
2022/09/07 03:52:36;;;;;;;5.55;5.05;;;;;;;18.24;81.09;100985.66;3592062;39;20406;-64
2022/09/07 03:55:03;;;;;;;6.20;5.60;;;;;;;18.24;82.24;100979.38;3587236;39;20467;-63
2022/09/07 03:57:29;;;;;;;6.10;5.53;;;;;;;18.22;81.63;100979.50;3589864;39;20054;-63
2022/09/07 03:59:54;;;;;;;8.02;5.70;;;;;;;18.24;81.85;100977.50;3586712;39;20106;-62
2022/09/07 04:02:20;;;;;;;6.55;5.93;;;;;;;18.24;81.73;100968.50;3587487;39;20048;-61
2022/09/07 04:04:46;;;;;;;7.97;6.60;;;;;;;18.21;81.07;100958.75;3589186;39;20044;-62
2022/09/07 04:07:13;;;;;;;7.90;6.28;;;;;;;18.19;81.53;100954.44;3587358;39;20071;-62
2022/09/07 04:09:38;;;;;;;7.63;6.40;;;;;;;18.10;81.80;100947.97;3591506;39;20059;-62
2022/09/07 04:12:04;;;;;;;7.10;6.43;;;;;;;18.10;81.72;100945.25;3585295;39;20051;-63
2022/09/07 04:14:30;;;;;;;8.00;7.07;;;;;;;18.10;82.17;100937.09;3585319;39;20051;-63
2022/09/07 04:16:55;;;;;;;7.13;5.82;;;;;;;18.10;82.71;100940.66;3589481;39;20055;-61
2022/09/07 04:19:21;;;;;;;7.40;6.38;;;;;;;18.12;82.34;100937.81;3590596;39;20100;-63
2022/09/07 04:21:47;;;;;;;9.65;6.47;;;;;;;18.11;81.95;100936.09;3590399;39;20064;-62
2022/09/07 04:24:14;;;;;;;7.72;6.47;;;;;;;18.14;82.38;100930.38;3592372;39;20063;-62
2022/09/07 04:26:42;;;;;;;8.63;6.70;;;;;;;18.12;81.69;100943.25;3590790;39;20058;-61
2022/09/07 04:29:08;;;;;;;6.63;6.00;;;;;;;18.07;81.50;100951.81;3586424;39;21535;-63
2022/09/07 04:31:34;;;;;;;13.15;5.88;;;;;;;18.08;81.91;100955.44;3589677;39;20067;-62
2022/09/07 04:34:01;;;;;;;6.38;5.78;;;;;;;18.09;81.81;100965.31;3589596;39;20086;-62
2022/09/07 04:36:27;;;;;;;7.05;6.45;;;;;;;18.07;80.95;100964.56;3588645;39;20048;-62
2022/09/07 04:38:59;;;;;;;6.35;5.75;;;;;;;18.05;80.97;100964.72;3588451;39;20067;-62
2022/09/07 04:41:28;;;;;;;6.47;5.88;;;;;;;18.07;80.89;100964.56;3590370;39;20056;-62
2022/09/07 04:43:58;;;;;;;7.45;6.30;;;;;;;17.90;80.77;100933.47;3588790;39;20639;-63
2022/09/07 04:46:32;;;;;;;7.25;6.18;;;;;;;17.84;80.88;100932.16;3589970;39;20071;-62
2022/09/07 04:49:02;;;;;;;7.75;6.85;;;;;;;17.96;81.06;100948.38;3589067;39;20052;-62
2022/09/07 04:51:31;;;;;;;7.35;6.60;;;;;;;18.03;81.73;100954.97;3589518;39;20054;-62
2022/09/07 04:54:00;;;;;;;8.32;6.38;;;;;;;18.01;81.53;100951.53;3587057;39;21617;-62
2022/09/07 04:56:27;;;;;;;7.93;6.95;;;;;;;18.05;81.48;100958.44;3590746;39;20344;-62
2022/09/07 04:58:53;;;;;;;9.20;6.93;;;;;;;18.05;81.62;100961.16;3589766;39;20063;-61
2022/09/07 05:01:23;;;;;;;7.30;6.65;;;;;;;18.09;81.31;100951.69;3587652;39;20356;-63
2022/09/07 05:03:49;;;;;;;8.00;6.40;;;;;;;17.94;82.12;100934.06;3587030;39;20087;-62
2022/09/07 05:06:19;;;;;;;8.48;6.47;;;;;;;18.08;82.38;100950.84;3589101;39;20044;-63
2022/09/07 05:08:49;;;;;;;9.00;7.57;;;;;;;18.07;81.02;100945.53;3590933;39;20078;-62
2022/09/07 05:11:16;;;;;;;9.38;7.30;;;;;;;18.06;81.84;100938.38;3588634;39;20067;-62
2022/09/07 05:13:42;;;;;;;8.73;7.88;;;;;;;18.05;81.80;100940.25;3590136;39;20421;-62
2022/09/07 05:16:15;;;;;;;9.07;7.70;;;;;;;18.03;81.07;100942.22;3588126;39;20079;-62
2022/09/07 05:18:42;;;;;;;8.77;7.77;;;;;;;18.03;80.52;100942.22;3588562;39;20116;-61
2022/09/07 05:21:15;;;;;;;10.38;7.82;;;;;;;18.01;81.13;100946.09;3589725;39;20310;-61
2022/09/07 05:23:41;;;;;;;8.70;7.70;;;;;;;18.04;81.14;100951.25;3591471;39;20046;-63
2022/09/07 05:26:09;;;;;;;10.25;7.97;;;;;;;18.03;80.60;100950.38;3589793;39;20071;-64
2022/09/07 05:28:36;;;;;;;10.43;8.05;;;;;;;18.02;80.27;100950.53;3588121;39;20134;-64
2022/09/07 05:31:15;;;;;;;9.30;8.38;;;;;;;17.98;80.96;100958.13;3587704;39;20286;-64
2022/09/07 05:33:53;;;;;;;10.32;9.15;;;;;;;17.96;80.74;100949.25;3589144;39;20550;-64
2022/09/07 05:36:20;;;;;;;10.30;8.95;;;;;;;17.93;81.09;100948.66;3589458;39;20044;-64
2022/09/07 05:38:46;;;;;;;11.82;9.15;;;;;;;17.91;80.70;100956.09;3590873;39;20393;-64
2022/09/07 05:41:16;;;;;;;11.80;9.27;;;;;;;17.90;81.52;100957.09;3591277;39;20327;-64
2022/09/07 05:43:42;;;;;;;10.40;9.30;;;;;;;17.90;80.69;100954.38;3587323;39;20067;-64
2022/09/07 05:46:10;;;;;;;10.43;9.27;;;;;;;17.89;81.88;100960.78;3587830;39;20702;-62
2022/09/07 05:48:36;;;;;;;12.65;9.23;;;;;;;17.85;82.40;100950.19;3590976;39;20051;-64
2022/09/07 05:51:02;;;;;;;12.25;9.45;;;;;;;17.95;82.61;100958.41;3588332;39;21992;-64
2022/09/07 05:53:28;;;;;;;11.85;10.23;;;;;;;17.96;82.09;100956.53;3590110;39;20072;-63
2022/09/07 05:55:59;;;;;;;10.77;9.68;;;;;;;17.96;83.07;100951.97;3588061;39;20055;-63
2022/09/07 05:58:26;;;;;;;12.88;9.55;;;;;;;17.91;82.38;100951.50;3589320;39;20052;-65
2022/09/07 06:00:52;;;;;;;11.20;10.13;;;;;;;17.96;82.71;100971.00;3588698;39;20056;-64
2022/09/07 06:03:18;;;;;;;12.38;9.82;;;;;;;17.96;83.04;100975.59;3585468;39;20048;-63
2022/09/07 06:05:43;;;;;;;11.35;10.10;;;;;;;17.95;82.93;100973.84;3589704;39;20121;-63
2022/09/07 06:08:09;;;;;;;12.65;11.13;;;;;;;17.88;82.72;100968.09;3586432;39;20326;-63
2022/09/07 06:10:36;;;;;;;13.15;10.65;;;;;;;17.94;83.55;100977.56;3589756;39;20063;-63
2022/09/07 06:13:03;;;;;;;12.35;11.07;;;;;;;17.96;83.15;100971.00;3588288;39;20058;-64
2022/09/07 06:15:32;;;;;;;15.73;14.05;;;;;;;18.02;82.71;100972.31;3583559;39;20281;-63
2022/09/07 06:17:58;;;;;;;15.88;14.18;;;;;;;18.04;83.12;100973.88;3587539;39;20047;-63
2022/09/07 06:20:23;;;;;;;17.35;14.48;;;;;;;18.08;83.28;100972.59;3584296;39;20060;-63
2022/09/07 06:22:49;;;;;;;16.17;14.38;;;;;;;18.13;83.46;100983.06;3590891;39;20035;-63
2022/09/07 06:25:15;;;;;;;19.70;14.93;;;;;;;18.16;83.01;100985.50;3585145;39;20086;-64
2022/09/07 06:27:40;;;;;;;19.88;16.00;;;;;;;18.20;83.22;100986.06;3585766;39;20095;-64
2022/09/07 06:30:06;;;;;;;20.92;17.75;;;;;;;18.23;82.26;100992.09;3585583;39;20615;-63
2022/09/07 06:32:36;;;;;;;23.63;17.88;;;;;;;18.29;83.13;100994.25;3587065;39;20056;-63
2022/09/07 06:35:03;;;;;;;21.83;18.13;;;;;;;18.36;83.38;100989.09;3584798;39;20132;-64
2022/09/07 06:37:29;;;;;;;23.90;19.35;;;;;;;18.42;82.77;100995.84;3587024;39;20050;-63
2022/09/07 06:39:54;;;;;;;22.35;19.00;;;;;;;18.04;82.95;100935.78;3587484;39;20056;-63
2022/09/07 06:42:20;;;;;;;24.40;20.17;;;;;;;18.42;83.23;101001.28;3585488;39;20044;-63
2022/09/07 06:44:45;;;;;;;26.38;21.67;;;;;;;18.44;82.81;100997.44;3587823;39;20079;-64
2022/09/07 06:47:11;;;;;;;30.52;21.75;;;;;;;18.44;83.49;101000.16;3586164;39;20056;-65
2022/09/07 06:49:36;;;;;;;27.85;23.42;;;;;;;18.48;83.13;101004.31;3584926;39;20051;-65
2022/09/07 06:52:02;;;;;;;27.67;22.02;;;;;;;18.56;83.55;101000.91;3584886;39;20052;-64
2022/09/07 06:54:28;;;;;;;30.23;22.95;;;;;;;18.64;82.80;101003.75;3586004;39;20093;-63
2022/09/07 06:56:54;;;;;;;27.98;22.75;;;;;;;18.67;83.02;100995.28;3586270;39;20375;-64
2022/09/07 06:59:20;;;;;;;27.95;24.40;;;;;;;18.77;82.34;101001.66;3584640;39;20044;-64
2022/09/07 07:01:45;;;;;;;26.85;22.73;;;;;;;18.83;82.53;101010.22;3585419;39;20066;-64
2022/09/07 07:04:12;;;;;;;28.92;24.77;;;;;;;18.91;81.88;101011.25;3586498;39;20052;-65
2022/09/07 07:06:39;;;;;;;31.73;24.65;;;;;;;19.01;81.88;101003.06;3586671;39;20044;-64
2022/09/07 07:09:10;;;;;;;28.70;25.70;;;;;;;19.03;81.13;101009.22;3587996;39;20081;-64
2022/09/07 07:11:36;;;;;;;28.67;25.38;;;;;;;19.09;82.51;101008.63;3587997;39;20063;-63
2022/09/07 07:14:03;;;;;;;28.10;25.10;;;;;;;19.18;82.16;101013.19;3585834;39;20051;-64
2022/09/07 07:16:28;;;;;;;30.20;25.00;;;;;;;19.37;82.25;101015.03;3583727;39;20052;-63
2022/09/07 07:18:55;;;;;;;28.27;25.23;;;;;;;19.55;81.31;101015.13;3589438;39;20072;-63
2022/09/07 07:21:22;;;;;;;27.77;24.52;;;;;;;19.73;80.63;101001.59;3584090;39;20052;-63
2022/09/07 07:23:52;;;;;;;29.38;24.20;;;;;;;19.85;79.02;101016.78;3586121;39;20338;-63
2022/09/07 07:26:25;;;;;;;26.73;23.92;;;;;;;19.94;77.78;101015.84;3585152;40;20105;-64
2022/09/07 07:28:53;;;;;;;26.80;23.90;;;;;;;20.03;78.35;101019.53;3588971;39;20083;-64
2022/09/07 07:31:23;;;;;;;26.63;23.73;;;;;;;20.11;78.39;101018.81;3588431;39;20088;-63
2022/09/07 07:36:52;;;;;;;28.65;24.20;;;;;;;20.32;77.85;101021.25;3584174;39;20179;-64
2022/09/07 07:39:17;;;;;;;27.45;23.33;;;;;;;20.52;78.14;101020.16;3585845;39;20071;-63
2022/09/07 07:41:43;;;;;;;26.35;23.15;;;;;;;20.64;76.11;101028.97;3588923;39;20050;-64
2022/09/07 07:44:09;;;;;;;24.90;22.20;;;;;;;20.64;75.47;101024.34;3585700;39;20072;-66
2022/09/07 07:46:34;;;;;;;26.35;22.40;;;;;;;20.62;74.51;101029.13;3589608;39;20089;-66
2022/09/07 07:49:00;;;;;;;24.30;21.80;;;;;;;20.69;74.17;101032.09;3587322;39;20402;-66
2022/09/07 07:51:25;;;;;;;24.73;22.17;;;;;;;20.72;73.45;101031.78;3589509;39;20056;-66
2022/09/07 07:53:51;;;;;;;24.63;22.13;;;;;;;20.91;74.12;101038.13;3591310;39;20389;-65
2022/09/07 07:56:17;;;;;;;22.17;19.95;;;;;;;21.15;73.97;101034.72;3588685;39;20059;-66
2022/09/07 07:58:47;;;;;;;23.40;21.08;;;;;;;21.31;72.51;101043.03;3591036;39;20052;-66
2022/09/07 08:01:16;;;;;;;22.77;20.38;;;;;;;21.46;72.35;101041.47;3591582;39;20463;-66
2022/09/07 08:03:45;;;;;;;21.13;18.90;;;;;;;21.49;70.56;101035.69;3590347;39;20056;-67
2022/09/07 08:06:17;;;;;;;21.77;19.67;;;;;;;21.48;70.11;101044.91;3589497;39;20373;-66
2022/09/07 08:08:44;;;;;;;20.13;17.95;;;;;;;21.35;70.78;101033.53;3589698;39;20055;-66
2022/09/07 08:11:16;;;;;;;21.13;18.92;;;;;;;21.39;70.51;101051.34;3591313;39;20052;-66
2022/09/07 08:13:44;;;;;;;22.42;18.27;;;;;;;21.47;71.16;101048.69;3591985;39;20470;-67
2022/09/07 08:16:10;;;;;;;19.80;17.80;;;;;;;21.63;70.46;101047.03;3590177;39;20084;-66
2022/09/07 08:18:38;;;;;;;20.20;17.98;;;;;;;21.80;70.71;101048.88;3590490;39;20219;-66
2022/09/07 08:21:09;;;;;;;21.77;19.45;;;;;;;21.94;69.66;101056.47;3587701;39;20054;-67
2022/09/07 08:23:38;;;;;;;18.45;16.60;;;;;;;21.94;69.49;101040.03;3587595;39;20425;-66
2022/09/07 08:26:05;;;;;;;18.45;16.67;;;;;;;22.16;69.09;101059.69;3587637;39;20455;-65
2022/09/07 08:28:39;;;;;;;18.25;16.13;;;;;;;22.28;69.35;101052.88;3589234;39;20104;-67
2022/09/07 08:31:08;;;;;;;18.40;16.48;;;;;;;22.42;69.15;101060.47;3589686;39;20079;-66
2022/09/07 08:33:36;;;;;;;18.90;15.32;;;;;;;22.61;68.13;101050.22;3591264;39;20052;-68
2022/09/07 08:36:06;;;;;;;17.50;15.65;;;;;;;22.75;67.43;101049.59;3589998;39;20050;-67
2022/09/07 08:38:35;;;;;;;16.48;14.80;;;;;;;22.79;67.23;101050.97;3588547;39;20133;-66
2022/09/07 08:41:34;;;;;;;16.40;14.70;;;;;;;23.14;66.03;101059.94;3589960;39;20125;-67
2022/09/07 08:44:15;;;;;;;15.23;13.77;;;;;;;23.42;65.70;101067.81;3586776;39;20136;-66
2022/09/07 08:47:25;;;;;;;14.15;12.68;;;;;;;23.54;63.91;101063.69;3588901;39;20064;-67
2022/09/07 08:50:14;;;;;;;15.02;13.05;;;;;;;23.67;61.59;101071.38;3587359;39;20054;-67
2022/09/07 08:52:48;;;;;;;13.18;11.88;;;;;;;23.78;62.34;101065.53;3589776;39;20060;-67
2022/09/07 08:55:53;;;;;;;13.52;11.48;;;;;;;23.93;61.04;101065.69;3590022;39;20058;-66
2022/09/07 08:58:30;;;;;;;12.80;11.55;;;;;;;24.08;59.24;101069.41;3589641;39;20043;-66
2022/09/07 09:00:55;;;;;;;12.63;11.32;;;;;;;24.16;61.00;101063.88;3588243;39;20422;-67
2022/09/07 09:03:29;;;;;;;10.80;9.57;;;;;;;24.19;59.87;101022.31;3589349;39;20108;-68
2022/09/07 09:06:27;;;;;;;11.30;10.27;;;;;;;24.70;60.38;101063.13;3588691;39;20044;-67
2022/09/07 09:09:46;;;;;;;10.07;9.10;;;;;;;24.95;58.33;101063.81;3590075;39;20060;-66
2022/09/07 09:12:39;;;;;;;9.68;8.45;;;;;;;25.17;57.12;101060.22;3589682;39;20055;-66
2022/09/07 09:15:33;;;;;;;10.90;8.40;;;;;;;25.34;56.01;101069.22;3588298;39;20104;-66
2022/09/07 09:18:27;;;;;;;9.15;7.68;;;;;;;25.52;55.25;101068.00;3588412;39;20060;-67
2022/09/07 09:20:56;;;;;;;8.50;7.38;;;;;;;25.47;55.55;101032.78;3589327;39;20055;-67
2022/09/07 09:23:45;;;;;;;9.68;7.07;;;;;;;25.54;53.90;101047.50;3589243;39;20164;-66
2022/09/07 09:26:24;;;;;;;7.47;6.45;;;;;;;25.67;52.64;101069.72;3588950;39;20060;-66
2022/09/07 09:28:51;;;;;;;6.95;6.10;;;;;;;25.37;53.18;101022.06;3588696;39;20129;-66
2022/09/07 09:31:33;;;;;;;6.70;6.00;;;;;;;25.74;52.24;101063.47;3588183;39;20116;-66
2022/09/07 09:34:14;;;;;;;24.48;9.32;;;;;;;25.89;51.81;101069.88;3590769;39;20408;-66
2022/09/07 09:36:50;;;;;;;9.77;5.60;;;;;;;26.13;52.37;101066.84;3591907;39;20066;-65
2022/09/07 09:39:37;;;;;;;7.63;6.32;;;;;;;26.24;51.36;101039.84;3591020;39;20321;-67
2022/09/07 09:42:26;;;;;;;6.75;4.32;;;;;;;26.75;50.59;101062.75;3589423;39;20398;-67
2022/09/07 09:44:52;;;;;;;8.20;4.97;;;;;;;26.91;49.52;101058.03;3594734;39;20095;-67
2022/09/07 09:47:39;;;;;;;6.63;4.03;;;;;;;27.16;50.16;101059.38;3588168;39;20070;-66
2022/09/07 09:50:20;;;;;;;5.40;3.55;;;;;;;27.21;47.72;101059.66;3590590;39;20051;-67
2022/09/07 09:52:49;;;;;;;15.30;4.63;;;;;;;27.34;47.14;101067.19;3587955;39;20043;-67
2022/09/07 09:55:30;;;;;;;16.85;4.82;;;;;;;27.44;47.28;101073.22;3587436;39;20062;-66
2022/09/07 09:58:25;;;;;;;15.73;4.18;;;;;;;27.59;46.76;101066.72;3588966;39;20648;-66
2022/09/07 10:01:05;;;;;;;8.52;3.00;;;;;;;27.73;46.34;101063.03;3586907;39;20070;-66
2022/09/07 10:03:33;;;;;;;6.65;2.85;;;;;;;27.90;44.93;101063.59;3591344;39;20060;-66
2022/09/07 10:06:06;;;;;;;8.73;3.22;;;;;;;27.93;45.84;101066.78;3590536;39;20055;-67
2022/09/07 10:08:33;;;;;;;9.52;3.40;;;;;;;27.94;45.54;101056.59;3591495;39;20043;-67
2022/09/07 10:11:11;;;;;;;6.65;2.38;;;;;;;28.04;44.02;101064.50;3588432;39;20128;-66
2022/09/07 10:13:56;;;;;;;5.90;2.63;;;;;;;27.99;43.91;101057.69;3590808;39;20052;-66
2022/09/07 10:16:41;;;;;;;5.80;2.63;;;;;;;28.06;43.39;101059.63;3587943;39;20056;-66
2022/09/07 10:19:38;;;;;;;7.38;2.55;;;;;;;27.88;43.17;101049.09;3590932;39;20358;-67
2022/09/07 10:22:34;;;;;;;7.15;2.40;;;;;;;28.09;43.33;101039.88;3588162;39;20055;-66
2022/09/07 10:25:11;;;;;;;4.13;1.98;;;;;;;28.28;42.02;101041.88;3588554;39;20374;-66
2022/09/07 10:27:39;;;;;;;5.18;2.20;;;;;;;28.20;42.99;101026.34;3590690;39;20060;-67
2022/09/07 10:30:15;;;;;;;3.20;1.90;;;;;;;28.36;42.29;101041.72;3591245;39;20058;-66
2022/09/07 10:33:09;;;;;;;6.60;2.05;;;;;;;28.18;41.75;101033.13;3588458;39;20056;-67
2022/09/07 10:35:52;;;;;;;;;;;;;;;28.24;43.23;101035.06;3581766;40;20485;-66
2022/09/07 10:38:22;;;;;;;5.38;2.35;;;;;;;28.42;42.72;101038.16;3590260;39;20007;-67
2022/09/07 10:41:08;;;;;;;4.95;2.28;;;;;;;28.59;41.12;101046.06;3579947;39;20360;-67
2022/09/07 10:43:48;;;;;;;5.13;2.20;;;;;;;28.86;42.32;101028.50;3587102;39;20103;-67
2022/09/07 10:46:47;;;;;;;7.25;2.38;;;;;;;28.78;40.95;101028.66;3589235;39;20063;-67
2022/09/07 10:49:29;;;;;;;4.65;2.17;;;;;;;28.95;40.50;101033.81;3589529;39;20394;-67
2022/09/07 10:52:42;;;;;;;3.72;1.83;;;;;;;29.25;40.59;101029.59;3588207;39;20121;-66
2022/09/07 10:55:34;;;;;;;5.38;1.70;;;;;;;29.39;40.04;101025.75;3590954;39;20141;-67
2022/09/07 10:58:43;;;;;;;5.53;2.30;;;;;;;29.19;40.32;101029.59;3591156;39;20059;-67
2022/09/07 11:01:43;;;;;;;6.18;2.33;;;;;;;28.57;40.83;101028.81;3587857;39;20060;-65
2022/09/07 11:05:16;;;;;;;5.57;2.35;;;;;;;27.89;41.08;101024.06;3589585;39;20373;-66
2022/09/07 11:08:19;;;;;;;4.13;1.88;;;;;;;27.50;42.10;101038.44;3579751;39;20363;-66
2022/09/07 11:11:20;;;;;;;3.15;1.63;;;;;;;27.34;43.11;101020.25;3586811;39;20055;-65
2022/09/07 11:13:54;;;;;;;6.18;1.92;;;;;;;27.72;42.45;101011.56;3573820;39;20125;-66
2022/09/07 11:16:31;;;;;;;3.70;1.88;;;;;;;27.80;40.66;101021.66;3590710;39;20075;-67
2022/09/07 11:19:22;;;;;;;3.78;1.77;;;;;;;27.97;41.97;101014.72;3587456;39;20457;-66
2022/09/07 11:22:13;;;;;;;5.28;1.90;;;;;;;28.12;41.00;101009.06;3589034;39;20321;-65
2022/09/07 11:24:59;;;;;;;6.18;1.80;;;;;;;28.29;41.57;100999.38;3590552;39;20048;-67
2022/09/07 11:27:42;;;;;;;4.97;1.88;;;;;;;28.88;40.08;101009.72;3592228;39;20645;-67
2022/09/07 11:30:30;;;;;;;6.43;2.00;;;;;;;28.82;39.07;101010.56;3591966;39;20064;-69
2022/09/07 11:33:11;;;;;;;5.35;1.90;;;;;;;29.02;40.20;101009.78;3591783;39;20099;-67
2022/09/07 11:35:57;;;;;;;6.78;2.17;;;;;;;29.34;39.28;101011.72;3592790;39;20060;-68
2022/09/07 11:38:34;;;;;;;5.68;2.17;;;;;;;29.65;38.71;101004.66;3590867;39;20047;-66
2022/09/07 11:41:27;;;;;;;5.25;2.03;;;;;;;29.72;37.15;101013.81;3592253;39;20059;-66
2022/09/07 11:44:03;;;;;;;4.72;1.83;;;;;;;29.98;38.31;101006.50;3590626;39;20361;-67
2022/09/07 11:46:44;;;;;;;6.30;2.25;;;;;;;30.30;37.47;101004.69;3590510;39;20052;-68
2022/09/07 11:49:23;;;;;;;4.72;2.10;;;;;;;30.70;37.35;101002.53;3589960;39;20183;-66
2022/09/07 11:52:01;;;;;;;4.43;1.70;;;;;;;30.94;37.08;101005.59;3591019;39;20048;-67
2022/09/07 11:55:04;;;;;;;3.67;1.63;;;;;;;30.66;35.51;101009.59;3593013;39;20085;-68
2022/09/07 11:58:13;;;;;;;3.15;1.70;;;;;;;30.66;35.73;100998.50;3589599;39;20386;-67
2022/09/07 12:00:51;;;;;;;4.38;1.60;;;;;;;30.82;35.47;101004.63;3591971;39;20353;-68